sensor_id;sensor_type;location;lat;lon;timestamp;P1;durP1;ratioP1;P2;durP2;ratioP2
70487;SDS011;57976;48.174;16.370;2022-10-26T21:46:46;44.90;;;21.80;;
70487;SDS011;57976;48.174;16.370;2022-10-26T21:48:51;41.50;;;20.50;;
70487;SDS011;57976;48.174;16.370;2022-10-26T21:50:56;33.40;;;17.60;;
70487;SDS011;57976;48.174;16.370;2022-10-26T21:53:02;27.70;;;15.50;;
70487;SDS011;57976;48.174;16.370;2022-10-26T21:55:07;25.70;;;14.70;;
70487;SDS011;57976;48.174;16.370;2022-10-26T21:57:12;23.10;;;13.70;;
70487;SDS011;57976;48.174;16.370;2022-10-26T21:59:17;23.70;;;14.10;;
70487;SDS011;57976;48.174;16.370;2022-10-26T22:01:22;24.20;;;13.40;;
70487;SDS011;57976;48.174;16.370;2022-10-26T22:03:27;21.50;;;12.80;;
70487;SDS011;57976;48.174;16.370;2022-10-26T22:05:31;21.50;;;13.00;;
70487;SDS011;57976;48.174;16.370;2022-10-26T22:07:36;22.30;;;13.20;;
70487;SDS011;57976;48.174;16.370;2022-10-26T22:09:41;23.70;;;13.60;;
70487;SDS011;57976;48.174;16.370;2022-10-26T22:12:05;19.90;;;12.50;;
70487;SDS011;57976;48.174;16.370;2022-10-26T22:14:13;22.90;;;13.00;;
70487;SDS011;57976;48.174;16.370;2022-10-26T22:16:20;20.70;;;12.80;;
70487;SDS011;57976;48.174;16.370;2022-10-26T22:18:26;21.30;;;12.70;;
70487;SDS011;57976;48.174;16.370;2022-10-26T22:20:30;21.10;;;12.60;;
70487;SDS011;57976;48.174;16.370;2022-10-26T22:22:35;20.90;;;12.40;;
70487;SDS011;57976;48.174;16.370;2022-10-26T22:24:40;19.70;;;12.00;;
70487;SDS011;57976;48.174;16.370;2022-10-26T22:26:45;20.80;;;12.40;;
70487;SDS011;57976;48.174;16.370;2022-10-26T22:28:50;22.30;;;12.90;;
70487;SDS011;57976;48.174;16.370;2022-10-26T22:31:00;21.60;;;13.00;;
70487;SDS011;57976;48.174;16.370;2022-10-26T22:33:06;21.20;;;12.30;;
70487;SDS011;57976;48.174;16.370;2022-10-26T22:35:11;21.00;;;12.80;;
70487;SDS011;57976;48.174;16.370;2022-10-26T22:37:32;21.60;;;12.20;;
70487;SDS011;57976;48.174;16.370;2022-10-26T22:39:38;20.80;;;12.30;;
70487;SDS011;57976;48.174;16.370;2022-10-26T22:41:42;21.20;;;12.80;;
70487;SDS011;57976;48.174;16.370;2022-10-26T22:43:49;21.20;;;12.40;;
70487;SDS011;57976;48.174;16.370;2022-10-26T22:46:01;22.50;;;12.80;;
70487;SDS011;57976;48.174;16.370;2022-10-26T22:48:07;21.90;;;12.40;;
70487;SDS011;57976;48.174;16.370;2022-10-26T22:50:12;21.50;;;12.80;;
70487;SDS011;57976;48.174;16.370;2022-10-26T22:52:16;20.70;;;12.10;;
70487;SDS011;57976;48.174;16.370;2022-10-26T22:54:21;20.50;;;12.10;;
70487;SDS011;57976;48.174;16.370;2022-10-26T22:56:26;19.40;;;12.20;;
70487;SDS011;57976;48.174;16.370;2022-10-26T22:58:32;21.30;;;12.10;;
70487;SDS011;57976;48.174;16.370;2022-10-26T23:00:37;20.50;;;12.20;;
70487;SDS011;57976;48.174;16.370;2022-10-26T23:02:42;21.70;;;12.60;;
70487;SDS011;57976;48.174;16.370;2022-10-26T23:04:47;20.20;;;11.60;;
70487;SDS011;57976;48.174;16.370;2022-10-26T23:06:51;21.70;;;12.70;;
70487;SDS011;57976;48.174;16.370;2022-10-26T23:08:56;21.80;;;12.60;;
70487;SDS011;57976;48.174;16.370;2022-10-26T23:11:03;20.60;;;12.80;;
70487;SDS011;57976;48.174;16.370;2022-10-26T23:13:09;23.10;;;13.00;;
70487;SDS011;57976;48.174;16.370;2022-10-26T23:15:14;19.80;;;12.40;;
70487;SDS011;57976;48.174;16.370;2022-10-26T23:17:19;20.30;;;12.40;;
70487;SDS011;57976;48.174;16.370;2022-10-26T23:19:24;21.70;;;13.10;;
70487;SDS011;57976;48.174;16.370;2022-10-26T23:21:28;20.90;;;12.80;;
70487;SDS011;57976;48.174;16.370;2022-10-26T23:23:33;20.90;;;12.50;;
70487;SDS011;57976;48.174;16.370;2022-10-26T23:25:39;21.80;;;12.60;;
70487;SDS011;57976;48.174;16.370;2022-10-26T23:27:43;21.90;;;13.40;;
70487;SDS011;57976;48.174;16.370;2022-10-26T23:29:48;20.80;;;13.00;;
70487;SDS011;57976;48.174;16.370;2022-10-26T23:31:53;21.40;;;12.80;;
70487;SDS011;57976;48.174;16.370;2022-10-26T23:33:57;24.70;;;13.40;;
70487;SDS011;57976;48.174;16.370;2022-10-26T23:36:02;22.00;;;13.90;;
70487;SDS011;57976;48.174;16.370;2022-10-26T23:38:07;20.50;;;12.80;;
70487;SDS011;57976;48.174;16.370;2022-10-26T23:40:12;23.10;;;13.10;;
70487;SDS011;57976;48.174;16.370;2022-10-26T23:42:17;23.10;;;13.00;;
70487;SDS011;57976;48.174;16.370;2022-10-26T23:44:22;21.80;;;13.10;;
70487;SDS011;57976;48.174;16.370;2022-10-26T23:46:26;22.10;;;13.40;;
70487;SDS011;57976;48.174;16.370;2022-10-26T23:48:31;21.50;;;12.50;;
70487;SDS011;57976;48.174;16.370;2022-10-26T23:50:36;22.20;;;12.70;;
70487;SDS011;57976;48.174;16.370;2022-10-26T23:52:46;21.90;;;12.90;;
70487;SDS011;57976;48.174;16.370;2022-10-26T23:54:50;22.20;;;12.80;;
70487;SDS011;57976;48.174;16.370;2022-10-26T23:56:55;21.40;;;12.80;;
70487;SDS011;57976;48.174;16.370;2022-10-26T23:59:00;19.00;;;12.20;;
